Terminal Aerodrome Forecast
Issued by NWS

Home | Current Version | Previous Version | Text Only | Print | Product List | Glossary On
Versions: 1 2 3 4 5 6 7 8 9 10 11 12 13
624
FTUS46 KSGX 240225 AAA
TAFTRM
TAF AMD
KTRM 240225Z 2402/2424 15015G20KT 6SM BLDU BKN030
     FM240300 14010KT P6SM SCT150
     FM240500 VRB05KT P6SM SCT150
     FM241900 14010KT P6SM SCT150=

USA.gov is the U.S. government's official web portal to all federal, state and local government web resources and services.